This is the latest recevied weather packets stored in our database for station/object SA7NOA-14. If no packets are shown the sender has not sent any weather packets the latest 10 day(s).
| Time | Temp. | Humidity | Pressure | Rain* | Wind** | Luminosity | Snow |
|---|---|---|---|---|---|---|---|
| 1788161400 | 16.67° C | 84% | 1008.4 hPa | 1.02 mm | - | - | - |
| 1788160504 | 15.56° C | 84% | 1008.4 hPa | 1.02 mm | - | - | - |
| 1788159604 | 15° C | 84% | 1008.4 hPa | 1.02 mm | - | - | - |
| 1788158703 | 15° C | 84% | 1008.4 hPa | 1.02 mm | - | - | - |
| 1788157802 | 14.44° C | 89% | 1008.5 hPa | 1.02 mm | - | - | - |
| 1788156901 | 14.44° C | 89% | 1008.5 hPa | 1.02 mm | - | - | - |
| 1788156005 | 14.44° C | 89% | 1008.5 hPa | 1.02 mm | - | - | - |
| 1788155104 | 14.44° C | 89% | 1008.5 hPa | 1.02 mm | - | - | - |
| 1788154203 | 13.89° C | 89% | 1008.2 hPa | 1.02 mm | - | - | - |
| 1788153302 | 14.44° C | 89% | 1008.2 hPa | 1.02 mm | - | - | - |
| 1788152401 | 14.44° C | 89% | 1008.2 hPa | 1.02 mm | - | - | - |
| 1788151505 | 13.89° C | 89% | 1008.2 hPa | 1.52 mm | - | - | - |
| 1788150604 | 13.89° C | 92% | 1008.1 hPa | 1.52 mm | - | - | - |
| 1788149703 | 13.89° C | 92% | 1008.1 hPa | 1.52 mm | - | - | - |
| 1788148802 | 13.33° C | 92% | 1008.1 hPa | 1.52 mm | - | - | - |
| 1788147901 | 13.89° C | 92% | 1008.1 hPa | 1.52 mm | - | - | - |
| 1788147005 | 13.33° C | 91% | 1007.8 hPa | 1.52 mm | - | - | - |
| 1788146104 | 13.33° C | 91% | 1007.8 hPa | 1.52 mm | - | - | - |
| 1788114601 | 17.22° C | 96% | 1003.5 hPa | 1.27 mm | - | - | - |
| 1788111903 | 17.22° C | 96% | 1003.5 hPa | 1.27 mm | - | - | - |
| 1788109205 | 17.22° C | 94% | 1003.4 hPa | 1.27 mm | - | - | - |
| 1788103804 | 17.78° C | 92% | 1003.8 hPa | 1.78 mm | - | - | - |
| 1788102903 | 17.78° C | 92% | 1003.8 hPa | 1.78 mm | - | - | - |
| 1788100205 | 19.44° C | 90% | 1004.2 hPa | 1.78 mm | - | - | - |
| 1788099304 | 20.56° C | 90% | 1004.2 hPa | 1.78 mm | - | - | - |
* Rain latest 24 hours (hover to see other rain measurements)
** Current wind speed in m/s (hover to see current wind gust speed)